createdAt,value
2024-05-09T00:00:31.101Z,55.61
2024-05-09T00:03:03.622Z,55.88
2024-05-09T00:05:30.696Z,57.71
2024-05-09T00:07:57.783Z,58.96
2024-05-09T00:10:33.172Z,58.98
2024-05-09T00:13:03.836Z,59.26
2024-05-09T00:15:30.852Z,59.67
2024-05-09T00:17:58.010Z,59.66
2024-05-09T00:20:33.105Z,59.51
2024-05-09T00:23:05.133Z,57.92
2024-05-09T00:25:32.153Z,58.12
2024-05-09T00:27:59.145Z,57.85
2024-05-09T00:30:33.428Z,58.67
2024-05-09T00:33:03.846Z,57.17
2024-05-09T00:35:31.482Z,57.02
2024-05-09T00:37:58.543Z,57.36
2024-05-09T00:40:35.306Z,56.36
2024-05-09T00:43:06.374Z,57.03
2024-05-09T00:45:33.448Z,57.84
2024-05-09T00:48:00.852Z,59.14
2024-05-09T00:50:35.582Z,60.39
2024-05-09T00:53:04.314Z,59.45
2024-05-09T00:55:31.317Z,59.84
2024-05-09T00:57:58.298Z,59.47
2024-05-09T01:00:31.718Z,59.05
2024-05-09T01:03:05.743Z,57.98
2024-05-09T01:05:33.258Z,58.48
2024-05-09T01:08:00.435Z,59.01
2024-05-09T01:10:33.785Z,59.06
2024-05-09T01:13:02.359Z,59.47
2024-05-09T01:15:29.350Z,59.29
2024-05-09T01:17:56.865Z,59.17
2024-05-09T01:20:36.346Z,59.81
2024-05-09T01:23:08.489Z,60.12
2024-05-09T01:25:35.809Z,59.05
2024-05-09T01:28:02.926Z,58.29
2024-05-09T01:30:34.801Z,58.67
2024-05-09T01:33:04.828Z,57.24
2024-05-09T01:35:32.541Z,56.09
2024-05-09T01:37:59.589Z,55.35
2024-05-09T01:40:36.234Z,55.56
2024-05-09T01:43:06.257Z,56.50
2024-05-09T01:45:33.391Z,57.98
2024-05-09T01:48:00.897Z,58.15
2024-05-09T01:50:37.692Z,59.32
2024-05-09T01:53:08.219Z,58.08
2024-05-09T01:55:35.353Z,59.70
2024-05-09T01:58:02.356Z,58.69
2024-05-09T02:00:38.037Z,58.21
2024-05-09T02:03:08.506Z,59.54
2024-05-09T02:05:35.873Z,59.15
2024-05-09T02:08:03.085Z,57.93
2024-05-09T02:10:32.837Z,57.69
2024-05-09T02:13:00.532Z,56.69
2024-05-09T02:15:27.523Z,56.29
2024-05-09T02:17:54.765Z,56.63
2024-05-09T02:20:30.475Z,57.53
2024-05-09T02:23:02.961Z,58.19
2024-05-09T02:25:30.087Z,57.33
2024-05-09T02:27:57.125Z,56.78
2024-05-09T02:30:31.088Z,56.48
2024-05-09T02:33:06.228Z,55.60
2024-05-09T02:35:33.428Z,55.11
2024-05-09T02:38:00.746Z,55.22
2024-05-09T02:40:35.826Z,54.75
2024-05-09T02:43:05.493Z,54.61
2024-05-09T02:45:32.865Z,53.90
2024-05-09T02:48:00.722Z,53.93
2024-05-09T02:50:34.607Z,53.48
2024-05-09T02:53:06.125Z,53.94
2024-05-09T02:55:33.360Z,53.90
2024-05-09T02:58:00.365Z,54.47
2024-05-09T03:00:36.609Z,55.07
2024-05-09T03:03:07.512Z,57.13
2024-05-09T03:05:35.140Z,56.73
2024-05-09T03:08:02.342Z,56.73
2024-05-09T03:10:35.342Z,56.50
2024-05-09T03:13:04.483Z,55.87
2024-05-09T03:15:31.488Z,55.97
2024-05-09T03:17:58.617Z,56.13
2024-05-09T03:20:32.524Z,55.84
2024-05-09T03:23:01.816Z,56.78
2024-05-09T03:25:28.912Z,57.58
2024-05-09T03:27:55.938Z,57.02
2024-05-09T03:30:30.921Z,56.71
2024-05-09T03:33:06.724Z,55.98
2024-05-09T03:35:33.894Z,55.37
2024-05-09T03:38:00.970Z,54.96
2024-05-09T03:40:30.862Z,54.92
2024-05-09T03:42:58.444Z,55.16
2024-05-09T03:45:25.453Z,54.60
2024-05-09T03:47:52.918Z,54.66
2024-05-09T03:50:26.321Z,54.38
2024-05-09T03:53:00.659Z,55.03
2024-05-09T03:55:27.898Z,54.16
2024-05-09T03:57:54.876Z,53.81
2024-05-09T04:00:30.812Z,53.48
2024-05-09T04:03:04.511Z,53.53
2024-05-09T04:05:31.997Z,53.34
2024-05-09T04:07:59.160Z,53.62
2024-05-09T04:10:32.345Z,53.22
2024-05-09T04:13:01.128Z,53.27
2024-05-09T04:15:28.214Z,53.95
2024-05-09T04:17:55.523Z,54.50
2024-05-09T04:20:33.317Z,54.24
2024-05-09T04:23:05.704Z,56.76
2024-05-09T04:25:32.883Z,57.68
2024-05-09T04:27:59.957Z,56.68
2024-05-09T04:30:36.059Z,55.63
2024-05-09T04:33:07.687Z,54.80
2024-05-09T04:35:36.384Z,54.22
2024-05-09T04:38:03.651Z,53.95
2024-05-09T04:40:34.438Z,53.66
2024-05-09T04:43:03.554Z,53.00
2024-05-09T04:45:30.615Z,53.42
2024-05-09T04:47:58.059Z,54.10
2024-05-09T04:50:33.519Z,53.75
2024-05-09T04:53:05.050Z,54.24
2024-05-09T04:55:32.324Z,53.72
2024-05-09T04:57:59.344Z,54.18
2024-05-09T05:00:34.501Z,54.92
2024-05-09T05:03:04.191Z,56.06
2024-05-09T05:05:31.464Z,54.78
2024-05-09T05:07:58.588Z,55.20
2024-05-09T05:10:33.250Z,55.95
2024-05-09T05:13:02.980Z,55.94
2024-05-09T05:15:30.005Z,55.24
2024-05-09T05:17:57.104Z,55.69
2024-05-09T05:20:31.128Z,56.17
2024-05-09T05:23:01.049Z,56.31
2024-05-09T05:25:28.141Z,57.98
2024-05-09T05:27:55.125Z,58.31
2024-05-09T05:30:28.731Z,58.67
2024-05-09T05:33:00.342Z,59.94
2024-05-09T05:35:27.591Z,60.40
2024-05-09T05:37:54.716Z,60.06
2024-05-09T05:40:28.553Z,59.12
2024-05-09T05:43:02.728Z,58.74
2024-05-09T05:45:29.776Z,58.99
2024-05-09T05:47:56.938Z,58.79
2024-05-09T05:50:31.908Z,58.59
2024-05-09T05:53:02.737Z,58.70
2024-05-09T05:55:29.787Z,57.73
2024-05-09T05:57:56.806Z,56.58
2024-05-09T06:00:30.006Z,57.81
2024-05-09T06:03:04.641Z,56.95
2024-05-09T06:05:32.157Z,56.63
2024-05-09T06:07:59.563Z,55.93
2024-05-09T06:10:35.033Z,55.97
2024-05-09T06:13:06.103Z,55.58
2024-05-09T06:15:33.120Z,57.10
2024-05-09T06:18:00.334Z,57.12
2024-05-09T06:20:34.954Z,57.12
2024-05-09T06:23:04.803Z,55.08
2024-05-09T06:25:32.205Z,56.36
2024-05-09T06:27:59.337Z,57.59
2024-05-09T06:30:35.130Z,57.81
2024-05-09T06:33:06.512Z,57.03
2024-05-09T06:35:34.143Z,55.99
2024-05-09T06:38:01.617Z,56.45
2024-05-09T06:40:36.762Z,54.93
2024-05-09T06:43:06.182Z,56.62
2024-05-09T06:45:33.188Z,56.40
2024-05-09T06:48:00.445Z,55.33
2024-05-09T06:50:31.227Z,54.67
2024-05-09T06:53:02.829Z,54.92
2024-05-09T06:55:29.908Z,55.47
2024-05-09T06:57:56.955Z,55.39
2024-05-09T07:00:30.757Z,55.00
2024-05-09T07:03:05.995Z,53.38
2024-05-09T07:05:33.399Z,53.22
2024-05-09T07:08:00.588Z,53.36
2024-05-09T07:10:33.114Z,51.67
2024-05-09T07:13:02.446Z,51.19
2024-05-09T07:15:29.477Z,50.79
2024-05-09T07:17:56.670Z,51.37
2024-05-09T07:20:32.202Z,53.83
2024-05-09T07:23:01.938Z,53.92
2024-05-09T07:25:29.208Z,53.72
2024-05-09T07:27:56.352Z,53.65
2024-05-09T07:30:30.253Z,52.93
2024-05-09T07:33:00.613Z,52.83
2024-05-09T07:35:28.019Z,53.36
2024-05-09T07:37:55.153Z,52.74
2024-05-09T07:40:31.695Z,51.99
2024-05-09T07:43:02.612Z,49.97
2024-05-09T07:45:45.657Z,49.46
2024-05-09T07:49:59.707Z,48.81
2024-05-09T07:53:41.002Z,48.46
2024-05-09T07:56:12.258Z,47.34
2024-05-09T07:58:39.600Z,47.82
2024-05-09T08:01:06.823Z,46.43
2024-05-09T08:03:34.345Z,46.16
2024-05-09T08:06:01.559Z,45.82
2024-05-09T08:08:28.643Z,46.19
2024-05-09T08:10:55.797Z,45.19
2024-05-09T08:13:23.141Z,44.56
2024-05-09T08:15:50.340Z,46.46
2024-05-09T08:18:17.619Z,46.18
2024-05-09T08:20:44.786Z,46.09
2024-05-09T08:23:11.805Z,45.04
2024-05-09T08:25:38.929Z,46.87
2024-05-09T08:28:06.020Z,46.26
2024-05-09T08:30:37.050Z,45.94
2024-05-09T08:33:06.101Z,46.01
2024-05-09T08:35:33.969Z,47.80
2024-05-09T08:38:01.215Z,48.28
2024-05-09T08:40:34.548Z,45.27
2024-05-09T08:43:03.598Z,41.69
2024-05-09T08:45:30.630Z,38.16
2024-05-09T08:47:57.708Z,37.84
2024-05-09T08:50:32.291Z,37.00
2024-05-09T08:53:05.308Z,35.34
2024-05-09T08:55:32.365Z,33.63
2024-05-09T08:57:59.417Z,34.54
2024-05-09T09:00:34.217Z,34.33
2024-05-09T09:03:04.368Z,40.55
2024-05-09T09:05:32.009Z,37.59
2024-05-09T09:07:59.250Z,35.07
2024-05-09T09:10:31.913Z,32.70
2024-05-09T09:13:00.256Z,35.57
2024-05-09T09:15:27.459Z,35.13
2024-05-09T09:17:54.615Z,36.19
2024-05-09T09:20:28.730Z,34.24
2024-05-09T09:23:00.937Z,34.89
2024-05-09T09:25:27.960Z,34.26
2024-05-09T09:27:55.147Z,33.12
2024-05-09T09:30:34.457Z,31.91
2024-05-09T09:33:04.864Z,32.78
2024-05-09T09:35:32.153Z,32.89
2024-05-09T09:37:59.187Z,33.23
2024-05-09T09:40:32.100Z,34.55
2024-05-09T09:43:01.081Z,36.13
2024-05-09T09:45:28.198Z,35.16
2024-05-09T09:47:55.328Z,35.16
2024-05-09T09:50:27.942Z,35.48
2024-05-09T09:53:01.007Z,34.86
2024-05-09T09:55:28.038Z,35.32
2024-05-09T09:57:55.149Z,34.99
2024-05-09T10:00:27.230Z,32.50
2024-05-09T10:02:59.519Z,32.13
2024-05-09T10:05:27.069Z,31.33
2024-05-09T10:07:54.289Z,31.09
2024-05-09T10:10:27.362Z,30.43
2024-05-09T10:12:58.958Z,29.44
2024-05-09T10:15:26.170Z,30.71
2024-05-09T10:17:53.482Z,29.51
2024-05-09T10:20:24.732Z,29.70
2024-05-09T10:22:54.860Z,29.25
2024-05-09T10:25:22.097Z,30.10
2024-05-09T10:27:49.291Z,30.14
2024-05-09T10:30:25.387Z,31.47
2024-05-09T10:32:56.622Z,31.09
2024-05-09T10:35:23.800Z,33.17
2024-05-09T10:37:50.854Z,35.01
2024-05-09T10:40:25.774Z,36.42
2024-05-09T10:42:56.375Z,34.79
2024-05-09T10:45:23.534Z,34.75
2024-05-09T10:47:50.717Z,33.58
2024-05-09T10:50:25.256Z,34.96
2024-05-09T10:52:55.738Z,35.91
2024-05-09T10:55:22.942Z,34.58
2024-05-09T10:57:50.062Z,34.69
2024-05-09T11:00:27.049Z,33.94
2024-05-09T11:02:57.565Z,35.02
2024-05-09T11:05:24.787Z,34.53
2024-05-09T11:07:51.943Z,33.83
2024-05-09T11:10:27.235Z,33.30
2024-05-09T11:12:58.877Z,33.34
2024-05-09T11:15:25.985Z,33.11
2024-05-09T11:17:53.240Z,32.75
2024-05-09T11:20:26.883Z,32.86
2024-05-09T11:22:56.836Z,33.46
2024-05-09T11:25:23.901Z,33.82
2024-05-09T11:27:51.064Z,34.45
2024-05-09T11:30:26.639Z,35.52
2024-05-09T11:32:58.869Z,37.29
2024-05-09T11:35:25.978Z,37.03
2024-05-09T11:37:53.050Z,36.50
2024-05-09T11:40:25.571Z,38.84
2024-05-09T11:42:59.089Z,38.75
2024-05-09T11:45:26.144Z,36.85
2024-05-09T11:47:53.391Z,37.17
2024-05-09T11:50:27.163Z,36.48
2024-05-09T11:52:59.407Z,38.21
2024-05-09T11:55:28.208Z,39.05
2024-05-09T11:57:55.910Z,37.17
2024-05-09T12:00:33.714Z,37.43
2024-05-09T12:03:04.214Z,37.18
2024-05-09T12:05:31.414Z,38.31
2024-05-09T12:07:58.533Z,38.99
2024-05-09T12:10:32.690Z,39.00
2024-05-09T12:13:02.875Z,38.27
2024-05-09T12:15:30.609Z,37.97
2024-05-09T12:18:00.025Z,38.94
2024-05-09T12:20:35.827Z,39.10
2024-05-09T12:23:05.757Z,38.11
2024-05-09T12:25:32.764Z,37.44
2024-05-09T12:28:00.143Z,37.79
2024-05-09T12:30:35.584Z,37.75
2024-05-09T12:33:06.335Z,36.79
2024-05-09T12:35:33.566Z,37.08
2024-05-09T12:38:00.643Z,36.80
2024-05-09T12:40:35.493Z,38.26
2024-05-09T12:43:05.338Z,39.30
2024-05-09T12:45:32.584Z,37.85
2024-05-09T12:47:59.838Z,37.81
2024-05-09T12:50:32.498Z,37.07
2024-05-09T12:53:01.707Z,37.78
2024-05-09T12:55:33.858Z,35.85
2024-05-09T12:58:08.111Z,35.95
2024-05-09T13:00:35.610Z,36.38
2024-05-09T13:03:03.139Z,36.23
2024-05-09T13:05:30.588Z,37.04
2024-05-09T13:07:57.661Z,38.03
2024-05-09T13:10:31.641Z,39.75
2024-05-09T13:13:00.782Z,39.93
2024-05-09T13:15:28.720Z,38.35
2024-05-09T13:17:57.892Z,36.83
2024-05-09T13:20:32.771Z,37.39
2024-05-09T13:23:02.333Z,38.04
2024-05-09T13:25:29.536Z,36.82
2024-05-09T13:27:56.743Z,37.94
2024-05-09T13:30:29.924Z,37.18
2024-05-09T13:33:06.343Z,36.93
2024-05-09T13:35:34.048Z,34.85
2024-05-09T13:38:01.064Z,35.11
2024-05-09T13:40:33.469Z,36.85
2024-05-09T13:43:03.111Z,35.91
2024-05-09T13:45:30.318Z,36.33
2024-05-09T13:47:57.703Z,37.93
2024-05-09T13:50:33.160Z,37.19
2024-05-09T13:53:03.067Z,36.68
2024-05-09T13:55:30.168Z,37.06
2024-05-09T13:57:57.237Z,37.01
2024-05-09T14:02:54.843Z,38.36
2024-05-09T14:05:22.174Z,38.94
2024-05-09T14:07:49.243Z,38.30
2024-05-09T14:10:23.191Z,37.84
2024-05-09T14:12:55.734Z,37.14
2024-05-09T14:15:22.798Z,37.24
2024-05-09T14:17:49.825Z,37.04
2024-05-09T14:20:27.276Z,37.14
2024-05-09T14:22:57.855Z,34.58
2024-05-09T14:25:24.908Z,36.28
2024-05-09T14:27:52.040Z,35.87
2024-05-09T14:30:26.421Z,37.03
2024-05-09T14:33:01.575Z,38.38
2024-05-09T14:35:28.744Z,37.67
2024-05-09T14:37:55.778Z,37.00
2024-05-09T14:40:35.826Z,36.66
2024-05-09T14:43:08.495Z,34.77
2024-05-09T14:45:36.048Z,35.49
2024-05-09T14:48:03.716Z,35.78
2024-05-09T14:50:36.609Z,35.38
2024-05-09T14:53:06.762Z,35.40
2024-05-09T14:55:34.485Z,35.49
2024-05-09T14:58:01.581Z,37.46
2024-05-09T15:00:33.325Z,38.48
2024-05-09T15:03:03.346Z,38.14
2024-05-09T15:05:30.683Z,38.28
2024-05-09T15:07:57.975Z,37.53
2024-05-09T15:10:33.756Z,36.77
2024-05-09T15:13:03.621Z,38.08
2024-05-09T15:15:31.081Z,37.50
2024-05-09T15:17:58.617Z,37.01
2024-05-09T15:20:33.099Z,35.55
2024-05-09T15:23:03.100Z,36.32
2024-05-09T15:25:30.562Z,35.87
2024-05-09T15:27:57.973Z,35.70
2024-05-09T15:30:31.424Z,35.91
2024-05-09T15:33:00.880Z,37.24
2024-05-09T15:35:28.287Z,35.98
2024-05-09T15:37:55.275Z,36.53
2024-05-09T15:40:31.306Z,36.71
2024-05-09T15:43:05.755Z,36.21
2024-05-09T15:45:33.174Z,37.62
2024-05-09T15:48:00.455Z,36.77
2024-05-09T15:50:36.524Z,36.81
2024-05-09T15:53:08.073Z,35.81
2024-05-09T15:55:36.110Z,34.75
2024-05-09T15:58:04.181Z,36.67
2024-05-09T16:00:37.778Z,36.62
2024-05-09T16:03:09.148Z,37.16
2024-05-09T16:05:36.778Z,36.60
2024-05-09T16:08:04.144Z,37.64
2024-05-09T16:10:33.294Z,37.03
2024-05-09T16:13:02.299Z,37.76
2024-05-09T16:15:30.412Z,37.53
2024-05-09T16:17:57.657Z,37.28
2024-05-09T16:20:34.431Z,37.28
2024-05-09T16:23:06.835Z,37.24
2024-05-09T16:25:33.972Z,38.43
2024-05-09T16:28:01.288Z,38.80
2024-05-09T16:30:34.439Z,38.54
2024-05-09T16:33:03.378Z,38.86
2024-05-09T16:35:30.891Z,37.84
2024-05-09T16:37:57.921Z,38.05
2024-05-09T16:40:34.095Z,37.67
2024-05-09T16:43:06.120Z,37.39
2024-05-09T16:45:33.552Z,36.44
2024-05-09T16:48:00.968Z,35.83
2024-05-09T16:50:32.720Z,35.05
2024-05-09T16:53:01.685Z,35.62
2024-05-09T16:55:28.881Z,36.17
2024-05-09T16:57:57.466Z,36.95
2024-05-09T17:00:35.762Z,36.58
2024-05-09T17:03:08.293Z,35.35
2024-05-09T17:05:36.287Z,37.01
2024-05-09T17:08:03.820Z,37.01
2024-05-09T17:10:33.789Z,38.01
2024-05-09T17:13:02.583Z,38.67
2024-05-09T17:15:30.108Z,38.80
2024-05-09T17:17:57.244Z,38.28
2024-05-09T17:20:31.770Z,38.63
2024-05-09T17:23:02.185Z,38.80
2024-05-09T17:25:29.493Z,39.03
2024-05-09T17:27:56.964Z,39.45
2024-05-09T17:30:29.402Z,38.82
2024-05-09T17:33:02.580Z,38.73
2024-05-09T17:35:29.820Z,37.91
2024-05-09T17:37:56.969Z,38.67
2024-05-09T17:40:31.405Z,38.82
2024-05-09T17:43:03.086Z,39.68
2024-05-09T17:45:30.784Z,40.00
2024-05-09T17:47:58.507Z,39.87
2024-05-09T17:50:31.672Z,39.60
2024-05-09T17:53:03.010Z,40.19
2024-05-09T17:55:30.307Z,40.42
2024-05-09T17:57:57.802Z,39.89
2024-05-09T18:00:36.195Z,40.40
2024-05-09T18:03:07.177Z,40.53
2024-05-09T18:05:34.589Z,39.87
2024-05-09T18:08:01.671Z,40.47
2024-05-09T18:10:35.456Z,39.67
2024-05-09T18:13:06.265Z,40.27
2024-05-09T18:15:33.965Z,39.91
2024-05-09T18:18:01.386Z,39.38
2024-05-09T18:20:37.696Z,38.26
2024-05-09T18:23:10.321Z,38.92
2024-05-09T18:25:37.507Z,39.87
2024-05-09T18:28:04.830Z,39.67
2024-05-09T18:30:35.321Z,39.24
2024-05-09T18:33:04.726Z,39.45
2024-05-09T18:35:32.843Z,40.40
2024-05-09T18:37:59.829Z,40.44
2024-05-09T18:40:33.426Z,40.37
2024-05-09T18:43:03.688Z,39.82
2024-05-09T18:45:30.970Z,39.58
2024-05-09T18:47:58.339Z,39.39
2024-05-09T18:50:32.616Z,41.99
2024-05-09T18:53:04.052Z,41.47
2024-05-09T18:55:31.089Z,41.55
2024-05-09T18:57:58.153Z,40.78
2024-05-09T19:00:33.535Z,41.83
2024-05-09T19:03:04.281Z,41.12
2024-05-09T19:05:32.101Z,41.59
2024-05-09T19:07:59.314Z,41.76
2024-05-09T19:10:32.211Z,42.82
2024-05-09T19:13:04.323Z,42.01
2024-05-09T19:15:34.061Z,41.62
2024-05-09T19:18:01.282Z,40.86
2024-05-09T19:20:33.641Z,41.46
2024-05-09T19:23:02.444Z,41.92
2024-05-09T19:25:29.494Z,42.54
2024-05-09T19:27:56.618Z,43.71
2024-05-09T19:30:30.546Z,43.61
2024-05-09T19:33:05.368Z,43.84
2024-05-09T19:35:32.627Z,42.93
2024-05-09T19:37:59.948Z,43.10
2024-05-09T19:40:31.638Z,43.51
2024-05-09T19:43:00.734Z,43.70
2024-05-09T19:45:28.081Z,44.80
2024-05-09T19:47:55.206Z,45.22
2024-05-09T19:50:30.851Z,44.25
2024-05-09T19:53:04.444Z,43.99
2024-05-09T19:55:31.493Z,44.30
2024-05-09T19:57:59.890Z,44.36
2024-05-09T20:00:32.993Z,45.16
2024-05-09T20:03:03.201Z,44.81
2024-05-09T20:05:30.662Z,45.25
2024-05-09T20:07:57.939Z,45.32
2024-05-09T20:10:31.130Z,45.24
2024-05-09T20:13:00.118Z,45.42
2024-05-09T20:15:27.384Z,45.70
2024-05-09T20:17:55.275Z,46.19
2024-05-09T20:20:32.517Z,46.71
2024-05-09T20:23:04.692Z,47.10
2024-05-09T20:25:31.681Z,46.71
2024-05-09T20:27:58.871Z,47.26
2024-05-09T20:30:31.801Z,47.26
2024-05-09T20:33:00.911Z,46.89
2024-05-09T20:35:28.210Z,45.73
2024-05-09T20:37:55.352Z,47.21
2024-05-09T20:40:29.133Z,46.96
2024-05-09T20:43:00.624Z,46.49
2024-05-09T20:45:27.792Z,46.98
2024-05-09T20:47:54.885Z,47.11
2024-05-09T20:50:29.189Z,47.56
2024-05-09T20:53:03.964Z,47.67
2024-05-09T20:55:31.063Z,47.60
2024-05-09T20:57:58.133Z,47.17
2024-05-09T21:00:34.598Z,47.47
2024-05-09T21:03:07.224Z,45.89
2024-05-09T21:05:35.148Z,45.46
2024-05-09T21:08:02.941Z,44.64
2024-05-09T21:10:33.206Z,44.88
2024-05-09T21:13:02.588Z,44.51
2024-05-09T21:15:30.380Z,45.21
2024-05-09T21:17:57.474Z,44.65
2024-05-09T21:20:30.489Z,44.85
2024-05-09T21:22:59.380Z,44.38
2024-05-09T21:25:26.600Z,46.55
2024-05-09T21:27:54.027Z,45.50
2024-05-09T21:30:32.272Z,44.91
2024-05-09T21:33:07.823Z,45.09
2024-05-09T21:35:35.015Z,44.61
2024-05-09T21:38:02.022Z,44.90
2024-05-09T21:40:34.298Z,44.82
2024-05-09T21:43:03.301Z,45.21
2024-05-09T21:45:30.499Z,45.02
2024-05-09T21:47:57.645Z,44.45
2024-05-09T21:50:32.247Z,44.72
2024-05-09T21:53:06.564Z,44.57
2024-05-09T21:55:33.923Z,44.29
2024-05-09T21:58:01.053Z,44.48
2024-05-09T22:00:35.223Z,44.74
2024-05-09T22:03:05.147Z,44.20
2024-05-09T22:05:32.474Z,44.19
2024-05-09T22:07:59.646Z,43.87
2024-05-09T22:10:32.866Z,44.16
2024-05-09T22:13:02.603Z,44.26
2024-05-09T22:15:29.817Z,44.36
2024-05-09T22:17:57.636Z,44.42
2024-05-09T22:20:33.874Z,45.24
2024-05-09T22:23:04.739Z,45.20
2024-05-09T22:25:32.588Z,45.45
2024-05-09T22:28:00.076Z,45.01
2024-05-09T22:30:35.416Z,45.43
2024-05-09T22:33:06.061Z,45.37
2024-05-09T22:35:33.342Z,45.09
2024-05-09T22:38:00.492Z,45.13
2024-05-09T22:40:38.442Z,45.07
2024-05-09T22:43:13.693Z,45.31
2024-05-09T22:45:41.046Z,45.19
2024-05-09T22:48:08.711Z,45.50
2024-05-09T22:50:36.088Z,45.80
2024-05-09T22:53:03.152Z,46.48
2024-05-09T22:55:30.129Z,48.56
2024-05-09T22:57:57.256Z,47.35
2024-05-09T23:02:54.326Z,46.62
2024-05-09T23:05:21.489Z,45.80
2024-05-09T23:07:48.640Z,45.45
2024-05-09T23:10:21.423Z,45.38
2024-05-09T23:12:55.192Z,45.18
2024-05-09T23:15:22.206Z,45.60
2024-05-09T23:17:49.332Z,45.19
2024-05-09T23:20:22.088Z,45.42
2024-05-09T23:22:57.012Z,45.02
2024-05-09T23:25:24.115Z,45.20
2024-05-09T23:27:51.231Z,45.32
2024-05-09T23:30:28.482Z,45.27
2024-05-09T23:33:01.855Z,45.33
2024-05-09T23:35:28.917Z,45.74
2024-05-09T23:37:55.903Z,46.00
2024-05-09T23:40:23.654Z,46.26
2024-05-09T23:42:53.784Z,47.04
2024-05-09T23:45:20.789Z,47.59
2024-05-09T23:47:48.003Z,46.75
2024-05-09T23:50:20.533Z,46.63
2024-05-09T23:52:51.128Z,46.49
2024-05-09T23:55:18.445Z,46.49
2024-05-09T23:57:45.652Z,46.82
